Time;durP1;ratioP1;P1;durP2;ratioP2;P2;SDS_P1;SDS_P2;PMS_P1;PMS_P2;Temp;Humidity;BMP_temperature;BMP_pressure;BME280_temperature;BME280_humidity;BME280_pressure;Samples;Min_cycle;Max_cycle;Signal;HPM_P1;HPM_P2
2023/03/31 00:10:26;;;;;;;17.55;11.00;;;;;;;;;;6039110;23;20124;-93
2023/03/31 00:16:15;;;;;;;17.00;11.18;;;;;;;;;;6067243;23;20102;-92
2023/03/31 00:18:54;;;;;;;17.25;10.88;;;;;;;;;;6043403;23;20486;-93
2023/03/31 00:24:46;;;;;;;15.38;10.23;;;;;;;;;;6125184;23;20065;-93
2023/03/31 00:27:19;;;;;;;15.32;10.75;;;;;;;;;;6136832;23;20021;-94
2023/03/31 00:30:08;;;;;;;13.60;10.38;;;;;;;;;;6136517;23;20012;-93
2023/03/31 00:33:31;;;;;;;11.68;9.63;;;;;;;;;;6162110;23;20017;-92
2023/03/31 00:36:20;;;;;;;15.40;12.32;;;;;;;;;;6162544;23;20077;-93
2023/03/31 00:42:17;;;;;;;;;;;;;;;;;;;;;
2023/03/31 00:45:18;;;;;;;12.63;9.10;;;;;;;;;;6161168;23;20016;-94
2023/03/31 00:48:22;;;;;;;;;;;;;;;;;;;;;
2023/03/31 00:51:35;;;;;;;11.95;9.00;;;;;;;;;;6039793;23;20107;-93
2023/03/31 01:00:31;;;;;;;13.52;10.88;;;;;;;;;;6012780;23;20010;-94
2023/03/31 01:03:32;;;;;;;14.77;10.27;;;;;;;;;;6135159;23;20009;-94
2023/03/31 01:06:29;;;;;;;13.85;10.10;;;;;;;;;;6160862;23;20337;-92
2023/03/31 01:09:29;;;;;;;14.75;9.00;;;;;;;;;;6166121;23;20096;-94
2023/03/31 01:12:24;;;;;;;15.30;9.20;;;;;;;;;;6159645;23;20009;-93
2023/03/31 01:15:02;;;;;;;18.58;10.32;;;;;;;;;;6161941;23;20016;-92
2023/03/31 01:18:10;;;;;;;;;;;;;;;;;;;;;
2023/03/31 01:21:27;;;;;;;;;;;;;;;;;;;;;
2023/03/31 01:27:52;;;;;;;11.63;8.10;;;;;;;;;;6186338;23;20021;-95
2023/03/31 01:30:34;;;;;;;15.68;11.18;;;;;;;;;;6163761;23;20079;-93
2023/03/31 01:33:25;;;;;;;13.05;9.98;;;;;;;;;;6137305;23;20384;-93
2023/03/31 01:36:27;;;;;;;11.48;8.30;;;;;;;;;;6160421;23;20044;-92
2023/03/31 01:39:13;;;;;;;12.82;9.23;;;;;;;;;;6131822;23;20005;-94
2023/03/31 01:42:26;;;;;;;12.73;8.70;;;;;;;;;;6160938;23;20055;-92
2023/03/31 01:45:14;;;;;;;13.80;9.20;;;;;;;;;;6160230;23;20001;-93
2023/03/31 01:48:03;;;;;;;;;;;;;;;;;;;;;
2023/03/31 01:50:50;;;;;;;;;;;;;;;;;;;;;
2023/03/31 01:53:18;;;;;;;8.80;6.82;;;;;;;;;;6162054;23;20328;-93
2023/03/31 01:56:15;;;;;;;;;;;;;;;;;;;;;
2023/03/31 01:59:11;;;;;;;11.82;7.68;;;;;;;;;;6161739;23;20060;-93
2023/03/31 02:12:46;;;;;;;13.82;9.18;;;;;;;;;;6056901;23;20475;-94
2023/03/31 02:15:35;;;;;;;12.73;8.50;;;;;;;;;;6075021;23;20100;-94
2023/03/31 02:18:49;;;;;;;11.02;9.07;;;;;;;;;;6072752;23;20010;-94
2023/03/31 02:21:29;;;;;;;11.20;7.68;;;;;;;;;;6096503;23;20081;-93
2023/03/31 02:23:59;;;;;;;10.63;7.25;;;;;;;;;;6073033;23;20064;-94
2023/03/31 02:26:46;;;;;;;10.73;8.20;;;;;;;;;;6073348;23;20014;-95
2023/03/31 02:30:06;;;;;;;10.85;7.45;;;;;;;;;;6075463;23;20101;-94
2023/03/31 02:33:04;;;;;;;12.40;8.35;;;;;;;;;;6009183;23;20039;-93
2023/03/31 02:35:44;;;;;;;9.63;7.35;;;;;;;;;;6105629;23;20087;-93
2023/03/31 02:52:50;;;;;;;10.98;7.47;;;;;;;;;;5939172;24;20053;-90
2023/03/31 02:55:42;;;;;;;11.25;7.93;;;;;;;;;;5959176;23;20045;-90
2023/03/31 02:58:26;;;;;;;9.85;7.72;;;;;;;;;;6047696;23;20006;-90
2023/03/31 03:01:07;;;;;;;10.00;8.48;;;;;;;;;;6046365;23;20006;-90
2023/03/31 03:04:11;;;;;;;7.50;6.22;;;;;;;;;;6045999;23;20013;-89
2023/03/31 03:09:55;;;;;;;10.05;7.95;;;;;;;;;;6210479;23;20092;-90
2023/03/31 03:18:57;;;;;;;10.07;8.25;;;;;;;;;;6154541;23;20005;-91
2023/03/31 03:21:49;;;;;;;11.85;8.38;;;;;;;;;;6180891;23;20087;-91
2023/03/31 03:24:28;;;;;;;10.15;6.28;;;;;;;;;;6164019;23;20001;-91
2023/03/31 03:27:09;;;;;;;10.32;7.38;;;;;;;;;;6157508;23;20067;-90
2023/03/31 03:30:15;;;;;;;9.10;7.63;;;;;;;;;;6156687;23;20008;-90
2023/03/31 03:32:57;;;;;;;;;;;;;;;;;;;;;
2023/03/31 03:35:36;;;;;;;9.30;8.00;;;;;;;;;;6159451;23;20064;-91
2023/03/31 03:38:30;;;;;;;;;;;;;;;;;;;;;
2023/03/31 03:41:29;;;;;;;8.95;6.85;;;;;;;;;;6160515;23;20036;-90
2023/03/31 03:44:04;;;;;;;6.97;5.85;;;;;;;;;;6159302;23;20436;-90
2023/03/31 03:47:08;;;;;;;8.98;7.28;;;;;;;;;;6186370;23;20072;-90
2023/03/31 03:49:36;;;;;;;9.38;6.25;;;;;;;;;;6186358;23;20009;-91
2023/03/31 03:52:09;;;;;;;9.00;7.68;;;;;;;;;;6135489;23;20366;-90
2023/03/31 03:55:27;;;;;;;8.45;7.47;;;;;;;;;;6159853;23;20403;-91
2023/03/31 03:58:08;;;;;;;7.80;7.00;;;;;;;;;;6160124;23;20005;-90
2023/03/31 04:00:44;;;;;;;8.13;6.57;;;;;;;;;;6134279;23;20436;-90
2023/03/31 04:03:50;;;;;;;8.93;6.95;;;;;;;;;;6164579;23;20444;-90
2023/03/31 04:06:32;;;;;;;7.18;6.40;;;;;;;;;;6160216;23;20184;-90
2023/03/31 04:09:05;;;;;;;8.13;7.15;;;;;;;;;;6135943;23;20001;-89
2023/03/31 04:12:04;;;;;;;;;;;;;;;;;;;;;
2023/03/31 04:14:34;;;;;;;11.05;8.95;;;;;;;;;;6160388;23;20013;-90
2023/03/31 04:17:19;;;;;;;;;;;;;;;;;;;;;
2023/03/31 04:20:14;;;;;;;10.63;9.57;;;;;;;;;;6187059;23;20080;-91
2023/03/31 04:29:03;;;;;;;10.75;7.75;;;;;;;;;;6102195;23;20006;-91
2023/03/31 04:32:30;;;;;;;;;;;;;;;;;;;;;
2023/03/31 04:35:15;;;;;;;;;;;;;;;;;;;;;
2023/03/31 04:37:57;;;;;;;11.27;10.10;;;;;;;;;;6191984;23;20001;-89
2023/03/31 04:40:25;;;;;;;11.93;10.43;;;;;;;;;;6166939;23;20020;-90
2023/03/31 04:42:54;;;;;;;11.20;10.02;;;;;;;;;;6166095;23;20382;-90
2023/03/31 04:45:19;;;;;;;15.10;10.45;;;;;;;;;;6166145;23;20427;-89
2023/03/31 04:47:45;;;;;;;11.68;10.00;;;;;;;;;;6167000;23;20060;-89
2023/03/31 04:50:18;;;;;;;12.23;10.63;;;;;;;;;;6166086;23;20305;-89
2023/03/31 04:52:46;;;;;;;13.02;10.90;;;;;;;;;;6167111;23;20088;-90
2023/03/31 04:55:24;;;;;;;13.70;12.15;;;;;;;;;;6164258;23;20012;-91
2023/03/31 04:58:44;;;;;;;13.70;11.60;;;;;;;;;;6194438;23;20080;-91
2023/03/31 05:01:12;;;;;;;15.25;11.30;;;;;;;;;;6166183;23;20009;-90
2023/03/31 05:03:38;;;;;;;13.77;12.20;;;;;;;;;;6165954;23;20060;-89
2023/03/31 05:06:11;;;;;;;18.08;12.27;;;;;;;;;;6190395;23;20005;-90
2023/03/31 05:08:44;;;;;;;14.95;12.35;;;;;;;;;;6190975;23;20004;-89
2023/03/31 05:11:54;;;;;;;;;;;;;;;;;;;;;
2023/03/31 05:14:58;;;;;;;14.02;11.35;;;;;;;;;;6214991;23;20099;-90
2023/03/31 05:17:24;;;;;;;15.55;12.05;;;;;;;;;;6164206;23;20009;-90
2023/03/31 05:19:49;;;;;;;16.65;12.00;;;;;;;;;;6162810;23;20004;-89
2023/03/31 05:22:51;;;;;;;;;;;;;;;;;;;;;
2023/03/31 05:25:22;;;;;;;15.85;12.63;;;;;;;;;;6211695;23;20044;-90
2023/03/31 05:28:13;;;;;;;22.13;14.15;;;;;;;;;;6188632;23;20024;-91
2023/03/31 05:30:42;;;;;;;17.27;12.77;;;;;;;;;;6160712;23;20016;-89
2023/03/31 05:33:24;;;;;;;18.48;12.30;;;;;;;;;;6166671;23;20001;-90
2023/03/31 05:36:28;;;;;;;17.92;13.40;;;;;;;;;;6196090;23;20020;-91
2023/03/31 05:39:06;;;;;;;21.13;14.35;;;;;;;;;;6193089;23;20103;-90
2023/03/31 05:41:44;;;;;;;21.88;15.02;;;;;;;;;;6167726;23;20005;-89
2023/03/31 05:44:12;;;;;;;19.38;14.02;;;;;;;;;;6166356;23;20009;-89
2023/03/31 05:46:54;;;;;;;19.52;13.05;;;;;;;;;;6165654;23;20055;-89
2023/03/31 05:49:27;;;;;;;18.45;12.65;;;;;;;;;;6167465;23;20087;-88
2023/03/31 05:51:55;;;;;;;18.13;12.45;;;;;;;;;;6166433;23;20083;-88
2023/03/31 05:54:22;;;;;;;15.25;11.32;;;;;;;;;;6166183;23;20035;-90
2023/03/31 05:57:09;;;;;;;12.95;9.68;;;;;;;;;;6166053;23;20005;-91
2023/03/31 05:59:41;;;;;;;9.88;8.15;;;;;;;;;;6191145;23;20004;-90
2023/03/31 06:02:15;;;;;;;8.90;7.18;;;;;;;;;;6167831;23;20019;-89
2023/03/31 06:04:43;;;;;;;8.55;7.00;;;;;;;;;;6166370;23;20024;-91
2023/03/31 06:07:23;;;;;;;;;;;;;;;;;;;;;
2023/03/31 06:10:12;;;;;;;6.78;6.05;;;;;;;;;;6208971;23;20384;-90
2023/03/31 06:13:06;;;;;;;6.28;5.60;;;;;;;;;;6165094;23;20009;-91
2023/03/31 06:15:55;;;;;;;6.68;6.00;;;;;;;;;;6166179;23;20020;-90
2023/03/31 06:18:28;;;;;;;7.55;6.78;;;;;;;;;;6166472;23;20031;-90
2023/03/31 06:21:07;;;;;;;6.78;6.10;;;;;;;;;;6167293;23;20007;-91
2023/03/31 06:24:08;;;;;;;6.72;6.05;;;;;;;;;;6190877;23;20005;-91
2023/03/31 06:26:36;;;;;;;7.93;7.13;;;;;;;;;;6165033;23;20013;-89
2023/03/31 06:29:01;;;;;;;8.10;6.03;;;;;;;;;;6164669;23;20398;-88
2023/03/31 06:31:27;;;;;;;6.65;5.97;;;;;;;;;;6164807;23;20059;-88
2023/03/31 06:33:53;;;;;;;6.38;5.75;;;;;;;;;;6165150;23;20007;-87
2023/03/31 06:36:22;;;;;;;6.20;5.47;;;;;;;;;;6165332;23;20032;-89
2023/03/31 06:38:48;;;;;;;8.57;7.50;;;;;;;;;;6165876;23;20432;-89
2023/03/31 06:41:19;;;;;;;6.47;5.05;;;;;;;;;;6165197;23;20087;-90
2023/03/31 06:44:04;;;;;;;7.47;6.55;;;;;;;;;;6172028;23;20013;-90
2023/03/31 06:46:39;;;;;;;6.60;5.40;;;;;;;;;;6165199;23;20012;-91
2023/03/31 06:49:10;;;;;;;7.38;4.40;;;;;;;;;;6166575;23;20328;-89
2023/03/31 06:51:43;;;;;;;4.45;3.90;;;;;;;;;;6165798;23;20039;-89
2023/03/31 06:54:18;;;;;;;5.20;4.20;;;;;;;;;;6166946;23;20011;-90
2023/03/31 06:56:52;;;;;;;5.75;4.53;;;;;;;;;;6166687;23;20008;-90
2023/03/31 06:59:20;;;;;;;5.30;3.97;;;;;;;;;;6166557;23;20015;-89
2023/03/31 07:01:47;;;;;;;5.10;3.90;;;;;;;;;;6164995;23;20332;-90
2023/03/31 07:04:12;;;;;;;4.00;3.58;;;;;;;;;;6165109;23;20008;-90
2023/03/31 07:06:38;;;;;;;5.22;3.67;;;;;;;;;;6165387;23;20005;-90
2023/03/31 07:09:03;;;;;;;3.97;3.63;;;;;;;;;;6164595;23;20001;-88
2023/03/31 07:11:29;;;;;;;4.20;3.78;;;;;;;;;;6165094;23;20004;-88
2023/03/31 07:13:54;;;;;;;4.57;4.07;;;;;;;;;;6165382;23;20012;-90
2023/03/31 07:16:20;;;;;;;5.88;3.58;;;;;;;;;;6165611;23;20348;-90
2023/03/31 07:18:45;;;;;;;4.55;3.83;;;;;;;;;;6164689;23;20001;-88
2023/03/31 07:21:13;;;;;;;4.05;3.65;;;;;;;;;;6164489;23;20119;-89
2023/03/31 07:23:39;;;;;;;4.32;3.95;;;;;;;;;;6190251;23;20030;-90
2023/03/31 07:26:05;;;;;;;5.95;3.95;;;;;;;;;;6165282;23;20055;-91
2023/03/31 07:28:31;;;;;;;6.15;3.35;;;;;;;;;;6165729;23;20423;-90
2023/03/31 07:31:00;;;;;;;4.70;3.78;;;;;;;;;;6165716;23;20005;-91
2023/03/31 07:33:25;;;;;;;3.55;3.25;;;;;;;;;;6165676;23;20006;-91
2023/03/31 07:35:53;;;;;;;3.92;3.42;;;;;;;;;;6165670;23;20001;-91
2023/03/31 07:38:21;;;;;;;5.60;3.20;;;;;;;;;;6165062;23;20091;-90
2023/03/31 07:40:49;;;;;;;4.63;3.33;;;;;;;;;;6165406;23;20007;-89
2023/03/31 07:43:15;;;;;;;5.10;2.95;;;;;;;;;;6165399;23;20055;-90
2023/03/31 07:45:53;;;;;;;4.97;3.53;;;;;;;;;;6189625;23;20008;-91
2023/03/31 07:48:47;;;;;;;;;;;;;;;;;;;;;
2023/03/31 07:51:46;;;;;;;3.50;3.15;;;;;;;;;;6095910;23;20442;-91
2023/03/31 07:54:32;;;;;;;3.20;2.63;;;;;;;;;;6107500;23;20021;-91
2023/03/31 07:57:18;;;;;;;2.72;2.13;;;;;;;;;;6168234;23;20009;-92
2023/03/31 07:59:56;;;;;;;2.85;2.55;;;;;;;;;;6168757;23;20005;-91
2023/03/31 08:02:41;;;;;;;3.45;2.83;;;;;;;;;;6168309;23;20026;-92
2023/03/31 08:05:34;;;;;;;3.38;3.05;;;;;;;;;;6192713;23;20005;-92
2023/03/31 08:11:32;;;;;;;4.78;2.83;;;;;;;;;;6188030;23;20004;-92
2023/03/31 08:21:08;;;;;;;;;;;;;;;;;;;;;
2023/03/31 08:24:02;;;;;;;1.70;1.35;;;;;;;;;;6098079;23;20018;-91
2023/03/31 08:26:27;;;;;;;6.53;2.35;;;;;;;;;;6049489;23;20097;-92
2023/03/31 08:32:10;;;;;;;2.72;2.00;;;;;;;;;;6215244;23;20097;-91
2023/03/31 08:34:41;;;;;;;3.08;2.40;;;;;;;;;;6192213;23;20063;-93
2023/03/31 08:38:19;;;;;;;;;;;;;;;;;;;;;
2023/03/31 08:44:32;;;;;;;3.35;2.13;;;;;;;;;;6218666;23;20439;-91
2023/03/31 08:47:48;;;;;;;2.22;2.00;;;;;;;;;;6166907;23;20004;-92
2023/03/31 08:56:55;;;;;;;2.67;1.55;;;;;;;;;;6213600;23;20095;-91
2023/03/31 08:59:34;;;;;;;;;;;;;;;;;;;;;
2023/03/31 09:02:31;;;;;;;2.50;1.80;;;;;;;;;;6192295;23;20083;-91
2023/03/31 09:05:12;;;;;;;;;;;;;;;;;;;;;
2023/03/31 09:08:20;;;;;;;2.67;1.70;;;;;;;;;;6192058;23;20423;-92
2023/03/31 09:10:50;;;;;;;4.15;1.55;;;;;;;;;;6190410;23;20009;-92
2023/03/31 09:13:50;;;;;;;2.92;1.50;;;;;;;;;;6194662;23;20087;-92
2023/03/31 09:16:59;;;;;;;3.33;1.70;;;;;;;;;;6167247;23;20020;-92
2023/03/31 09:50:27;;;;;;;;;;;;;;;;;;6063478;23;20059;-92
2023/03/31 09:52:57;;;;;;;0.75;0.75;;;;;;;;;;6019632;23;19992;-89
2023/03/31 09:55:33;;;;;;;2.22;1.13;;;;;;;;;;6052716;23;20437;-90
2023/03/31 09:58:00;;;;;;;2.97;1.27;;;;;;;;;;6129603;23;20029;-89
2023/03/31 10:00:26;;;;;;;2.53;1.38;;;;;;;;;;6154959;23;20005;-89
2023/03/31 10:03:02;;;;;;;1.73;1.25;;;;;;;;;;6136182;23;20001;-90
2023/03/31 10:05:27;;;;;;;1.48;1.23;;;;;;;;;;6136649;23;20009;-89
2023/03/31 10:08:15;;;;;;;1.02;0.82;;;;;;;;;;6136608;23;20001;-92
2023/03/31 10:10:49;;;;;;;2.38;1.20;;;;;;;;;;6160934;23;20032;-93
2023/03/31 10:13:20;;;;;;;2.28;1.38;;;;;;;;;;6136695;23;20012;-91
2023/03/31 10:15:57;;;;;;;4.07;1.40;;;;;;;;;;6138205;23;20432;-90
2023/03/31 10:18:31;;;;;;;2.92;1.70;;;;;;;;;;6135946;23;20001;-91
2023/03/31 10:20:57;;;;;;;1.05;0.90;;;;;;;;;;6136672;23;19997;-91
2023/03/31 10:23:27;;;;;;;5.20;1.45;;;;;;;;;;6136469;23;20067;-88
2023/03/31 10:26:05;;;;;;;;;;;;;;;;;;;;;
2023/03/31 10:28:33;;;;;;;1.13;1.02;;;;;;;;;;6161106;23;20009;-90
2023/03/31 10:31:02;;;;;;;2.00;1.38;;;;;;;;;;6135668;23;19996;-91
2023/03/31 10:33:35;;;;;;;1.25;0.90;;;;;;;;;;6136382;23;20001;-91
2023/03/31 10:39:50;;;;;;;1.75;1.20;;;;;;;;;;6096447;23;20012;-91
2023/03/31 10:42:34;;;;;;;5.00;1.23;;;;;;;;;;6157626;23;20005;-89
2023/03/31 10:45:28;;;;;;;;;;;;;;;;;;;;;
2023/03/31 11:16:59;;;;;;;3.78;1.10;;;;;;;;;;6038268;23;20059;-91
2023/03/31 11:19:51;;;;;;;1.98;1.23;;;;;;;;;;5990380;23;20102;-90
2023/03/31 11:22:38;;;;;;;3.22;1.17;;;;;;;;;;6128969;23;20084;-89
2023/03/31 11:25:42;;;;;;;;;;;;;;;;;;;;;
2023/03/31 11:35:31;;;;;;;1.60;1.25;;;;;;;;;;6056426;23;20015;-90
2023/03/31 11:41:52;;;;;;;2.22;1.25;;;;;;;;;;6185553;23;20005;-90
2023/03/31 11:47:32;;;;;;;3.13;1.35;;;;;;;;;;6160520;23;19904;-91
2023/03/31 11:50:28;;;;;;;3.50;1.35;;;;;;;;;;6110038;23;20005;-92
2023/03/31 11:53:15;;;;;;;2.67;1.58;;;;;;;;;;6162417;23;20092;-91
2023/03/31 11:55:45;;;;;;;1.80;1.05;;;;;;;;;;6159665;23;20020;-91
2023/03/31 11:58:21;;;;;;;2.63;1.27;;;;;;;;;;6159912;23;20424;-91
2023/03/31 12:01:26;;;;;;;2.92;1.20;;;;;;;;;;6137675;23;20095;-91
2023/03/31 12:07:47;;;;;;;2.90;1.23;;;;;;;;;;6066496;23;20089;-92
2023/03/31 12:22:33;;;;;;;;;;;;;;;;;;;;;
2023/03/31 12:30:22;;;;;;;;;;;;;;;;;;;;;
2023/03/31 12:33:33;;;;;;;;;;;;;;;;;;;;;
2023/03/31 12:47:50;;;;;;;;;;;;;;;;;;;;;
2023/03/31 12:55:10;;;;;;;4.50;1.60;;;;;;;;;;5845979;24;20065;-91
2023/03/31 12:57:47;;;;;;;0.35;0.35;;;;;;;;;;5845251;24;20114;-90
2023/03/31 13:00:48;;;;;;;3.55;1.60;;;;;;;;;;5845131;24;20082;-90
2023/03/31 13:03:36;;;;;;;1.95;1.30;;;;;;;;;;5951032;23;20084;-93
2023/03/31 13:07:21;;;;;;;2.72;1.08;;;;;;;;;;6169773;23;20443;-93
2023/03/31 13:13:36;;;;;;;2.90;1.88;;;;;;;;;;6187733;23;20401;-92
2023/03/31 13:35:13;;;;;;;3.88;2.33;;;;;;;;;;6059784;23;20007;-92
2023/03/31 13:38:23;;;;;;;3.55;1.60;;;;;;;;;;6047180;23;20011;-92
2023/03/31 13:41:22;;;;;;;2.85;1.13;;;;;;;;;;6043453;23;20074;-92
2023/03/31 13:55:28;;;;;;;1.48;0.98;;;;;;;;;;6033496;23;20026;-91
2023/03/31 13:58:52;;;;;;;4.38;1.38;;;;;;;;;;6063563;23;20450;-92
2023/03/31 14:16:07;;;;;;;2.55;1.58;;;;;;;;;;6216845;23;20091;-90
2023/03/31 14:30:18;;;;;;;;;;;;;;;;;;;;;
2023/03/31 14:37:18;;;;;;;1.15;1.00;;;;;;;;;;6038120;23;20077;-91
2023/03/31 14:40:19;;;;;;;1.92;1.30;;;;;;;;;;5991283;23;20017;-92
2023/03/31 14:46:10;;;;;;;3.20;0.90;;;;;;;;;;6171458;23;20011;-91
2023/03/31 14:49:10;;;;;;;;;;;;;;;;;;;;;
2023/03/31 14:52:06;;;;;;;2.50;1.35;;;;;;;;;;6190311;23;20016;-92
2023/03/31 14:57:53;;;;;;;3.28;1.58;;;;;;;;;;6146975;23;20013;-91
2023/03/31 15:01:24;;;;;;;;;;;;;;;;;;;;;
2023/03/31 15:04:46;;;;;;;;;;;;;;;;;;;;;
2023/03/31 15:14:46;;;;;;;;;;;;;;;;;;;;;
2023/03/31 15:22:00;;;;;;;;;;;;;;;;;;;;;
2023/03/31 15:25:39;;;;;;;9.23;5.03;;;;;;;;;;5972361;24;20019;-95
2023/03/31 15:35:47;;;;;;;9.45;6.35;;;;;;;;;;5898828;24;20597;-91
2023/03/31 15:38:41;;;;;;;13.63;7.95;;;;;;;;;;5937413;23;20043;-91
2023/03/31 15:41:21;;;;;;;13.05;8.65;;;;;;;;;;5959981;23;20012;-91
2023/03/31 15:47:59;;;;;;;6.53;3.90;;;;;;;;;;6140674;23;20012;-92
2023/03/31 15:51:18;;;;;;;5.72;2.58;;;;;;;;;;6166516;23;20083;-91
2023/03/31 15:54:31;;;;;;;12.98;6.85;;;;;;;;;;6167769;23;20051;-92
2023/03/31 15:57:21;;;;;;;3.63;2.53;;;;;;;;;;6160006;23;20024;-92
2023/03/31 16:00:09;;;;;;;3.72;2.35;;;;;;;;;;6177381;23;20065;-91
2023/03/31 16:02:45;;;;;;;5.03;3.05;;;;;;;;;;6184687;23;20091;-90
2023/03/31 16:05:38;;;;;;;7.72;5.75;;;;;;;;;;6160818;23;20005;-90
2023/03/31 16:08:11;;;;;;;6.68;6.03;;;;;;;;;;6160271;23;20036;-89
2023/03/31 16:10:55;;;;;;;11.20;8.07;;;;;;;;;;6184474;23;20316;-92
2023/03/31 16:14:09;;;;;;;;;;;;;;;;;;;;;
2023/03/31 16:21:00;;;;;;;;;;;;;;;;;;;;;
2023/03/31 16:24:08;;;;;;;13.75;9.00;;;;;;;;;;6187727;23;20016;-91
2023/03/31 16:34:31;;;;;;;4.63;3.00;;;;;;;;;;6075961;23;20088;-90
2023/03/31 16:48:42;;;;;;;8.43;5.10;;;;;;;;;;6009109;23;20027;-91
2023/03/31 17:07:06;;;;;;;18.08;9.65;;;;;;;;;;5952500;24;20418;-94
2023/03/31 17:13:31;;;;;;;;;;;;;;;;;;;;;
2023/03/31 17:16:46;;;;;;;39.67;25.13;;;;;;;;;;5869417;24;20021;-92
2023/03/31 18:03:24;;;;;;;22.98;15.20;;;;;;;;;;6017007;23;20857;-91
2023/03/31 18:14:02;;;;;;;;;;;;;;;;;;;;;
2023/03/31 18:16:51;;;;;;;16.58;9.20;;;;;;;;;;5957115;23;20028;-93
2023/03/31 18:19:22;;;;;;;10.75;5.47;;;;;;;;;;6086506;23;20003;-92
2023/03/31 18:22:15;;;;;;;8.35;5.07;;;;;;;;;;6158796;23;20095;-93
2023/03/31 18:24:54;;;;;;;7.68;5.05;;;;;;;;;;6153389;23;20001;-92
2023/03/31 18:31:16;;;;;;;6.28;4.10;;;;;;;;;;6182759;23;20121;-94
2023/03/31 18:34:48;;;;;;;;;;;;;;;;;;;;;
2023/03/31 18:37:57;;;;;;;;;;;;;;;;;;;;;
2023/03/31 18:44:38;;;;;;;15.23;9.75;;;;;;;;;;6181989;23;20080;-67
2023/03/31 18:47:03;;;;;;;13.27;10.90;;;;;;;;;;6181394;23;20012;-67
2023/03/31 18:49:28;;;;;;;41.90;31.75;;;;;;;;;;6180836;23;20005;-67
2023/03/31 18:51:54;;;;;;;348.73;235.90;;;;;;;;;;6179623;23;19999;-67
2023/03/31 18:54:20;;;;;;;278.67;185.50;;;;;;;;;;6178791;23;20080;-67
2023/03/31 18:56:45;;;;;;;46.13;31.83;;;;;;;;;;6181063;23;20087;-67
2023/03/31 18:59:11;;;;;;;134.05;83.43;;;;;;;;;;6180675;23;20344;-66
2023/03/31 19:01:39;;;;;;;117.72;66.55;;;;;;;;;;6181213;23;20005;-67
2023/03/31 19:04:05;;;;;;;64.90;42.42;;;;;;;;;;6180749;23;20005;-67
2023/03/31 19:06:30;;;;;;;80.55;53.15;;;;;;;;;;6179357;23;20067;-67
2023/03/31 19:08:56;;;;;;;23.42;16.20;;;;;;;;;;6180515;23;20008;-67
2023/03/31 19:11:22;;;;;;;8.98;5.60;;;;;;;;;;6179383;23;19997;-67
2023/03/31 19:13:50;;;;;;;158.93;67.55;;;;;;;;;;6179032;23;20019;-67
2023/03/31 19:16:17;;;;;;;104.28;43.65;;;;;;;;;;6154254;23;20009;-67
2023/03/31 19:18:42;;;;;;;116.72;41.13;;;;;;;;;;6178855;23;20016;-67
2023/03/31 19:21:08;;;;;;;107.82;47.83;;;;;;;;;;6180827;23;20009;-67
2023/03/31 19:23:35;;;;;;;60.10;32.55;;;;;;;;;;6179265;23;20023;-67
2023/03/31 19:26:01;;;;;;;64.57;34.10;;;;;;;;;;6181309;23;20505;-67
2023/03/31 19:28:28;;;;;;;143.98;64.13;;;;;;;;;;6181169;23;20083;-58
2023/03/31 19:30:58;;;;;;;61.05;40.55;;;;;;;;;;6183924;23;20476;-58
2023/03/31 19:33:24;;;;;;;27.50;23.23;;;;;;;;;;6183726;23;20012;-59
2023/03/31 19:35:50;;;;;;;42.47;32.55;;;;;;;;;;6183156;23;20107;-59
2023/03/31 19:38:16;;;;;;;27.35;18.70;;;;;;;;;;6180980;23;20005;-58
2023/03/31 19:40:42;;;;;;;54.85;37.45;;;;;;;;;;6180503;23;20299;-59
2023/03/31 19:43:19;;;;;;;48.97;33.45;;;;;;;;;;6179145;23;20005;-59
2023/03/31 19:45:45;;;;;;;8.75;6.85;;;;;;;;;;6180704;23;20020;-67
2023/03/31 19:48:11;;;;;;;15.45;11.43;;;;;;;;;;6183473;23;20406;-67
2023/03/31 19:50:36;;;;;;;26.25;15.73;;;;;;;;;;6181163;23;20020;-67
2023/03/31 19:53:02;;;;;;;138.75;80.25;;;;;;;;;;6178911;23;20373;-67
2023/03/31 19:55:27;;;;;;;87.78;51.75;;;;;;;;;;6178637;23;20052;-67
2023/03/31 19:57:52;;;;;;;68.32;40.40;;;;;;;;;;6180292;23;20009;-67
2023/03/31 20:00:18;;;;;;;19.25;14.85;;;;;;;;;;6180485;23;20005;-67
2023/03/31 20:02:44;;;;;;;15.27;13.77;;;;;;;;;;6178660;23;19997;-67
2023/03/31 20:05:09;;;;;;;8.95;6.43;;;;;;;;;;6180542;23;20476;-67
2023/03/31 20:07:34;;;;;;;5.07;4.57;;;;;;;;;;6178628;23;20112;-67
2023/03/31 20:10:00;;;;;;;7.97;4.82;;;;;;;;;;6180107;23;20317;-67
2023/03/31 20:12:25;;;;;;;8.20;6.18;;;;;;;;;;6178750;23;20405;-67
2023/03/31 20:14:51;;;;;;;20.10;13.88;;;;;;;;;;6180392;23;20112;-67
2023/03/31 20:17:16;;;;;;;23.48;17.25;;;;;;;;;;6180306;23;20108;-67
2023/03/31 20:19:42;;;;;;;32.40;17.55;;;;;;;;;;6180204;23;20056;-66
2023/03/31 20:22:07;;;;;;;28.88;18.08;;;;;;;;;;6178684;23;20080;-66
2023/03/31 20:24:33;;;;;;;31.38;19.35;;;;;;;;;;6180003;23;20005;-67
2023/03/31 20:26:59;;;;;;;33.60;20.30;;;;;;;;;;6180266;23;20059;-66
2023/03/31 20:29:24;;;;;;;28.95;19.48;;;;;;;;;;6180201;23;19997;-67
2023/03/31 20:31:50;;;;;;;20.88;14.23;;;;;;;;;;6180678;23;20020;-66
2023/03/31 20:34:17;;;;;;;19.30;12.20;;;;;;;;;;6179868;23;20009;-67
2023/03/31 20:36:44;;;;;;;20.45;13.18;;;;;;;;;;6180225;23;20341;-66
2023/03/31 20:39:11;;;;;;;15.82;9.93;;;;;;;;;;6180004;23;20014;-66
2023/03/31 20:41:37;;;;;;;10.65;7.60;;;;;;;;;;6180930;23;19989;-59
2023/03/31 20:44:03;;;;;;;9.73;7.57;;;;;;;;;;6180670;23;20456;-59
2023/03/31 20:46:31;;;;;;;10.35;8.10;;;;;;;;;;6181001;23;20024;-58
2023/03/31 20:48:57;;;;;;;16.70;10.50;;;;;;;;;;6178910;23;20013;-58
2023/03/31 20:51:24;;;;;;;18.30;12.45;;;;;;;;;;6182552;23;20470;-58
2023/03/31 20:53:51;;;;;;;24.13;14.95;;;;;;;;;;6183669;23;20013;-59
2023/03/31 20:56:24;;;;;;;18.60;12.65;;;;;;;;;;6182939;23;20019;-59
2023/03/31 20:58:52;;;;;;;33.40;19.35;;;;;;;;;;6182102;23;20307;-59
2023/03/31 21:01:25;;;;;;;54.92;35.05;;;;;;;;;;6183819;23;20005;-59
2023/03/31 21:03:51;;;;;;;44.80;26.90;;;;;;;;;;6187670;23;20076;-59
2023/03/31 21:06:17;;;;;;;40.63;25.00;;;;;;;;;;6187900;23;20068;-59
2023/03/31 21:08:44;;;;;;;41.28;24.98;;;;;;;;;;6187362;23;20088;-59
2023/03/31 21:11:10;;;;;;;41.78;25.08;;;;;;;;;;6187929;23;19993;-59
2023/03/31 21:13:36;;;;;;;45.95;24.67;;;;;;;;;;6187833;23;20016;-59
2023/03/31 21:16:03;;;;;;;52.80;26.48;;;;;;;;;;6187788;23;20009;-59
2023/03/31 21:18:29;;;;;;;41.05;24.13;;;;;;;;;;6186906;23;19993;-59
2023/03/31 21:20:55;;;;;;;61.70;31.45;;;;;;;;;;6186931;23;20437;-59
2023/03/31 21:23:21;;;;;;;68.30;32.63;;;;;;;;;;6186273;23;20076;-59
2023/03/31 21:25:51;;;;;;;88.13;39.03;;;;;;;;;;6185811;23;20060;-59
2023/03/31 21:28:19;;;;;;;78.10;36.45;;;;;;;;;;6186286;23;20009;-59
2023/03/31 21:31:13;;;;;;;40.65;21.52;;;;;;;;;;6187317;23;20340;-59
2023/03/31 21:33:40;;;;;;;59.17;28.77;;;;;;;;;;6167215;23;20013;-59
2023/03/31 21:36:08;;;;;;;59.28;28.48;;;;;;;;;;6185825;23;20013;-59
2023/03/31 21:38:35;;;;;;;51.92;24.75;;;;;;;;;;6187397;23;20306;-59
2023/03/31 21:41:07;;;;;;;42.50;20.30;;;;;;;;;;6187475;23;20414;-59
2023/03/31 21:43:32;;;;;;;43.13;22.05;;;;;;;;;;6187797;23;20088;-59
2023/03/31 21:45:58;;;;;;;42.47;22.08;;;;;;;;;;6185249;23;20091;-59
2023/03/31 21:48:25;;;;;;;36.50;20.27;;;;;;;;;;6187492;23;20013;-67
2023/03/31 21:50:53;;;;;;;43.40;23.33;;;;;;;;;;6187511;23;20041;-67
2023/03/31 21:53:25;;;;;;;44.33;23.98;;;;;;;;;;6187509;23;20042;-68
2023/03/31 21:55:52;;;;;;;38.05;21.15;;;;;;;;;;6187007;23;20393;-67
2023/03/31 21:58:18;;;;;;;34.55;19.85;;;;;;;;;;6186980;23;20001;-66
2023/03/31 22:00:43;;;;;;;31.17;19.17;;;;;;;;;;6185419;23;19997;-67
2023/03/31 22:03:08;;;;;;;33.17;19.13;;;;;;;;;;6187509;23;20071;-67
2023/03/31 22:05:34;;;;;;;36.33;21.20;;;;;;;;;;6185363;23;20056;-68
2023/03/31 22:08:00;;;;;;;36.10;19.58;;;;;;;;;;6185333;23;20100;-68
2023/03/31 22:10:25;;;;;;;36.85;20.77;;;;;;;;;;6186704;23;20080;-68
2023/03/31 22:12:50;;;;;;;36.45;20.33;;;;;;;;;;6186958;23;20055;-68
2023/03/31 22:15:16;;;;;;;40.63;19.05;;;;;;;;;;6185601;23;20075;-68
2023/03/31 22:17:41;;;;;;;39.63;21.42;;;;;;;;;;6187219;23;20117;-68
2023/03/31 22:20:07;;;;;;;34.88;20.55;;;;;;;;;;6187009;23;20005;-68
2023/03/31 22:22:32;;;;;;;39.78;22.50;;;;;;;;;;6185775;23;20016;-68
2023/03/31 22:24:58;;;;;;;38.03;21.65;;;;;;;;;;6186981;23;20314;-66
2023/03/31 22:27:23;;;;;;;38.63;21.10;;;;;;;;;;6186948;23;20333;-66
2023/03/31 22:29:48;;;;;;;32.40;20.85;;;;;;;;;;6186840;23;19993;-67
2023/03/31 22:32:18;;;;;;;39.13;21.65;;;;;;;;;;6186731;23;20029;-67
2023/03/31 22:34:44;;;;;;;33.05;20.45;;;;;;;;;;6186682;23;20001;-67
2023/03/31 22:37:10;;;;;;;40.85;22.35;;;;;;;;;;6186694;23;20013;-68
2023/03/31 22:39:35;;;;;;;49.05;25.55;;;;;;;;;;6185406;23;20000;-67
2023/03/31 22:42:01;;;;;;;48.42;27.48;;;;;;;;;;6186651;23;20076;-67
2023/03/31 22:44:26;;;;;;;44.38;25.08;;;;;;;;;;6186713;23;20009;-67
2023/03/31 22:46:52;;;;;;;30.65;18.40;;;;;;;;;;6186712;23;20016;-68
2023/03/31 22:49:19;;;;;;;30.17;17.80;;;;;;;;;;6187492;23;20044;-68
2023/03/31 22:51:45;;;;;;;31.25;19.52;;;;;;;;;;6186747;23;20444;-66
2023/03/31 22:54:14;;;;;;;32.85;19.70;;;;;;;;;;6186480;23;20013;-66
2023/03/31 22:56:40;;;;;;;30.77;19.17;;;;;;;;;;6186513;23;20009;-68
2023/03/31 22:59:06;;;;;;;31.55;18.30;;;;;;;;;;6186008;23;20233;-68
2023/03/31 23:01:32;;;;;;;28.42;17.70;;;;;;;;;;6187146;23;20001;-68
2023/03/31 23:03:59;;;;;;;30.23;17.88;;;;;;;;;;6186325;23;20032;-68
2023/03/31 23:06:25;;;;;;;25.67;16.08;;;;;;;;;;6186246;23;20009;-68